THY1YZ LSZH-LOWI

Flight info

Callsign THY1YZ
Flight time 0h 27m
Altitude FL150
Route
Aircraft B739/M-S/N

Departure

Time 2026-05-07 14:45
Airport Zürich Airport (LSZH)

Arrival

Time 2026-05-07 15:12
Airport Innsbruck Airport (LOWI)
Time Latitude Longitude Altitude Speed Heading
2026-05-07 14:26 47.44595 8.56054 1424 ft 0 kts 245°
2026-05-07 14:35 47.44599 8.56068 1424 ft 2 kts 245°
2026-05-07 14:35 47.44606 8.56090 1424 ft 2 kts 245°
2026-05-07 14:35 47.44613 8.56112 1424 ft 2 kts 255°
2026-05-07 14:35 47.44613 8.56135 1424 ft 2 kts 298°
2026-05-07 14:36 47.44606 8.56146 1424 ft 1 kts 334°
2026-05-07 14:36 47.44602 8.56149 1424 ft 0 kts 338°
2026-05-07 14:38 47.44608 8.56147 1424 ft 2 kts 350°
2026-05-07 14:38 47.44632 8.56141 1424 ft 5 kts 350°
2026-05-07 14:39 47.44676 8.56122 1424 ft 9 kts 337°
2026-05-07 14:39 47.44741 8.56078 1424 ft 12 kts 335°
2026-05-07 14:39 47.44822 8.56022 1424 ft 14 kts 335°
2026-05-07 14:39 47.44913 8.55960 1424 ft 12 kts 335°
2026-05-07 14:40 47.44950 8.55897 1424 ft 4 kts 281°
2026-05-07 14:40 47.44953 8.55864 1424 ft 3 kts 278°
2026-05-07 14:40 47.44957 8.55814 1424 ft 7 kts 276°
2026-05-07 14:40 47.44950 8.55727 1424 ft 10 kts 223°
2026-05-07 14:41 47.44875 8.55734 1424 ft 13 kts 153°
2026-05-07 14:41 47.44806 8.55781 1424 ft 9 kts 155°
2026-05-07 14:41 47.44757 8.55813 1424 ft 2 kts 155°
2026-05-07 14:41 47.44749 8.55819 1424 ft 1 kts 155°
2026-05-07 14:42 47.44741 8.55824 1424 ft 1 kts 155°
2026-05-07 14:42 47.44720 8.55838 1424 ft 7 kts 155°
2026-05-07 14:42 47.44662 8.55867 1424 ft 9 kts 190°
2026-05-07 14:42 47.44624 8.55821 1424 ft 4 kts 245°
2026-05-07 14:43 47.44622 8.55814 1424 ft 0 kts 245°
2026-05-07 14:43 47.44610 8.55775 1424 ft 8 kts 245°
2026-05-07 14:43 47.44589 8.55701 1424 ft 8 kts 257°
2026-05-07 14:44 47.44610 8.55640 1424 ft 7 kts 333°
2026-05-07 14:44 47.44671 8.55597 1424 ft 16 kts 334°
2026-05-07 14:44 47.44989 8.55377 1424 ft 88 kts 335°
2026-05-07 14:44 47.45749 8.54854 1426 ft 152 kts 334°
2026-05-07 14:45 47.46798 8.54130 1948 ft 166 kts 334°
2026-05-07 14:45 47.47827 8.53422 2893 ft 166 kts 334°
2026-05-07 14:45 47.48913 8.52648 3448 ft 183 kts 333°
2026-05-07 14:45 47.50129 8.51769 3772 ft 208 kts 333°
2026-05-07 14:46 47.51485 8.50787 4333 ft 221 kts 333°
2026-05-07 14:46 47.52820 8.49618 5103 ft 228 kts 318°
2026-05-07 14:46 47.53591 8.47617 6043 ft 226 kts 282°
2026-05-07 14:46 47.53564 8.45306 6974 ft 228 kts 259°
2026-05-07 14:47 47.53131 8.43038 7802 ft 232 kts 251°
2026-05-07 14:47 47.52533 8.40805 8507 ft 238 kts 246°
2026-05-07 14:47 47.51773 8.38630 8874 ft 239 kts 236°
2026-05-07 14:47 47.50553 8.36990 8994 ft 241 kts 210°
2026-05-07 14:48 47.48947 8.36374 9071 ft 242 kts 179°
2026-05-07 14:48 47.47362 8.37201 9730 ft 246 kts 147°
2026-05-07 14:48 47.46201 8.39049 10546 ft 250 kts 122°
2026-05-07 14:48 47.45622 8.41483 11274 ft 256 kts 100°
2026-05-07 14:49 47.45592 8.44123 11984 ft 261 kts 86°
2026-05-07 14:49 47.45695 8.46836 12606 ft 270 kts 89°
2026-05-07 14:49 47.45723 8.49668 13127 ft 283 kts 90°
2026-05-07 14:49 47.45719 8.52657 13539 ft 300 kts 90°
2026-05-07 14:50 47.45718 8.55831 13895 ft 319 kts 89°
2026-05-07 14:50 47.45832 8.59202 14245 ft 338 kts 86°
2026-05-07 14:50 47.45996 8.62761 14557 ft 358 kts 86°
2026-05-07 14:50 47.46144 8.66520 14805 ft 377 kts 86°
2026-05-07 14:51 47.46298 8.70473 15013 ft 394 kts 87°
2026-05-07 14:51 47.46448 8.74586 15030 ft 407 kts 87°
2026-05-07 14:51 47.46571 8.78787 15022 ft 412 kts 89°
2026-05-07 14:51 47.46459 8.83015 15023 ft 413 kts 95°
2026-05-07 14:52 47.46105 8.87221 15023 ft 413 kts 99°
2026-05-07 14:52 47.45507 8.91366 15025 ft 413 kts 105°
2026-05-07 14:52 47.44806 8.95469 15024 ft 413 kts 103°
2026-05-07 14:52 47.44215 8.99606 15023 ft 413 kts 102°
2026-05-07 14:53 47.43644 9.03749 15023 ft 413 kts 102°
2026-05-07 14:53 47.43044 9.07890 15023 ft 413 kts 102°
2026-05-07 14:53 47.42442 9.12026 15021 ft 413 kts 103°
2026-05-07 14:53 47.41837 9.16170 15022 ft 414 kts 103°
2026-05-07 14:54 47.41234 9.20311 15022 ft 414 kts 103°
2026-05-07 14:54 47.40780 9.24492 15022 ft 414 kts 95°
2026-05-07 14:54 47.40786 9.28725 15021 ft 414 kts 86°
2026-05-07 14:54 47.41031 9.32958 15022 ft 415 kts 86°
2026-05-07 14:55 47.41168 9.37201 15022 ft 415 kts 89°
2026-05-07 14:55 47.41179 9.41453 15023 ft 415 kts 91°
2026-05-07 14:55 47.41103 9.45703 15023 ft 415 kts 92°
2026-05-07 14:55 47.41030 9.49946 15023 ft 415 kts 91°
2026-05-07 14:56 47.40972 9.54196 15023 ft 415 kts 91°
2026-05-07 14:56 47.40922 9.58452 15023 ft 416 kts 91°
2026-05-07 14:56 47.40866 9.62710 15022 ft 416 kts 92°
2026-05-07 14:56 47.40613 9.66943 15023 ft 415 kts 98°
2026-05-07 14:57 47.40141 9.71135 15023 ft 415 kts 101°
2026-05-07 14:57 47.39573 9.75309 15023 ft 415 kts 102°
2026-05-07 14:57 47.39002 9.79467 15022 ft 415 kts 102°
2026-05-07 14:57 47.38449 9.83639 15022 ft 415 kts 101°
2026-05-07 14:58 47.37934 9.87818 15022 ft 415 kts 101°
2026-05-07 14:58 47.37399 9.91985 15018 ft 415 kts 101°
2026-05-07 14:58 47.36850 9.96155 15015 ft 415 kts 102°
2026-05-07 14:58 47.36297 10.00320 15013 ft 415 kts 102°
2026-05-07 14:59 47.35739 10.04490 15012 ft 416 kts 102°
2026-05-07 14:59 47.35174 10.08669 15007 ft 416 kts 102°
2026-05-07 14:59 47.34610 10.12841 15008 ft 415 kts 102°
2026-05-07 14:59 47.34056 10.16925 15004 ft 398 kts 102°
2026-05-07 15:00 47.33525 10.20850 15002 ft 387 kts 102°
2026-05-07 15:00 47.33004 10.24701 15002 ft 381 kts 102°
2026-05-07 15:00 47.32490 10.28499 14998 ft 378 kts 102°
2026-05-07 15:00 47.31989 10.32271 14752 ft 374 kts 102°
2026-05-07 15:01 47.31480 10.36029 14049 ft 378 kts 102°
2026-05-07 15:01 47.30956 10.39819 13522 ft 376 kts 103°
2026-05-07 15:01 47.30447 10.43517 13428 ft 361 kts 103°
2026-05-07 15:01 47.29958 10.47053 13392 ft 343 kts 103°
2026-05-07 15:02 47.29501 10.50347 13310 ft 316 kts 103°
2026-05-07 15:02 47.29077 10.53391 13234 ft 293 kts 103°
2026-05-07 15:02 47.28696 10.56268 13163 ft 282 kts 100°
2026-05-07 15:02 47.28586 10.59087 13102 ft 270 kts 90°
2026-05-07 15:03 47.28684 10.61763 13052 ft 256 kts 86°
2026-05-07 15:03 47.28892 10.64298 12981 ft 243 kts 82°
2026-05-07 15:03 47.29116 10.66695 12813 ft 233 kts 85°
2026-05-07 15:03 47.29261 10.69094 12300 ft 239 kts 86°
2026-05-07 15:04 47.29375 10.71505 11874 ft 234 kts 87°
2026-05-07 15:04 47.29484 10.73854 11495 ft 226 kts 87°
2026-05-07 15:04 47.29591 10.76141 11145 ft 224 kts 87°
2026-05-07 15:04 47.29699 10.78434 10781 ft 225 kts 86°
2026-05-07 15:05 47.29808 10.80727 10423 ft 225 kts 87°
2026-05-07 15:05 47.29917 10.83020 10064 ft 225 kts 87°
2026-05-07 15:05 47.30026 10.85314 9702 ft 225 kts 86°
2026-05-07 15:05 47.30134 10.87604 9345 ft 225 kts 87°
2026-05-07 15:06 47.30242 10.89893 8986 ft 224 kts 86°
2026-05-07 15:06 47.30350 10.92179 8626 ft 224 kts 86°
2026-05-07 15:06 47.30457 10.94446 8262 ft 219 kts 86°
2026-05-07 15:06 47.30561 10.96637 7914 ft 211 kts 86°
2026-05-07 15:07 47.30663 10.98788 7584 ft 210 kts 86°
2026-05-07 15:07 47.30764 11.00923 7252 ft 209 kts 86°
2026-05-07 15:07 47.30865 11.03048 6920 ft 208 kts 86°
2026-05-07 15:07 47.30944 11.05160 6588 ft 206 kts 90°
2026-05-07 15:08 47.30849 11.07245 6261 ft 203 kts 98°
2026-05-07 15:08 47.30478 11.09211 5923 ft 196 kts 113°
2026-05-07 15:08 47.29915 11.10988 5629 ft 188 kts 118°
2026-05-07 15:08 47.29319 11.12651 5357 ft 180 kts 119°
2026-05-07 15:09 47.28763 11.14248 5095 ft 173 kts 118°
2026-05-07 15:09 47.28231 11.15817 4798 ft 170 kts 118°
2026-05-07 15:09 47.27706 11.17361 4512 ft 168 kts 119°
2026-05-07 15:09 47.27161 11.18870 4289 ft 165 kts 118°
2026-05-07 15:10 47.26633 11.20349 4035 ft 164 kts 117°
2026-05-07 15:10 47.26138 11.21868 3758 ft 165 kts 112°
2026-05-07 15:10 47.25659 11.23358 3555 ft 159 kts 111°
2026-05-07 15:10 47.25319 11.24879 3287 ft 156 kts 101°
2026-05-07 15:11 47.25225 11.26467 2981 ft 156 kts 89°
2026-05-07 15:11 47.25325 11.28008 2749 ft 148 kts 80°
2026-05-07 15:11 47.25489 11.29493 2495 ft 147 kts 80°
2026-05-07 15:11 47.25653 11.30964 2264 ft 145 kts 79°
2026-05-07 15:12 47.25805 11.32414 2067 ft 143 kts 81°
2026-05-07 15:12 47.25960 11.33839 1910 ft 135 kts 79°
2026-05-07 15:12 47.26074 11.34882 1908 ft 67 kts 83°
2026-05-07 15:12 47.26111 11.35216 1908 ft 11 kts 87°
2026-05-07 15:13 47.26075 11.35255 1908 ft 7 kts 170°
2026-05-07 15:13 47.26029 11.35267 1908 ft 7 kts 170°
2026-05-07 15:13 47.25986 11.35277 1908 ft 6 kts 172°
2026-05-07 15:13 47.25943 11.35286 1908 ft 6 kts 171°
2026-05-07 15:14 47.25905 11.35274 1908 ft 6 kts 239°
2026-05-07 15:14 47.25896 11.35215 1908 ft 6 kts 260°
2026-05-07 15:14 47.25890 11.35158 1908 ft 6 kts 260°
2026-05-07 15:14 47.25877 11.35107 1908 ft 5 kts 215°
2026-05-07 15:15 47.25841 11.35106 1908 ft 5 kts 170°
2026-05-07 15:15 47.25833 11.35108 1908 ft 0 kts 170°
2026-05-07 15:15 47.25827 11.35110 1908 ft 0 kts 170°